Time;durP1;ratioP1;P1;durP2;ratioP2;P2;SDS_P1;SDS_P2;PMS_P1;PMS_P2;Temp;Humidity;BMP_temperature;BMP_pressure;BME280_temperature;BME280_humidity;BME280_pressure;Samples;Min_cycle;Max_cycle;Signal;HPM_P1;HPM_P2
2022/01/23 00:02:14;;;;;;;10.97;8.23;;;5.20;99.90;;;;;;4963161;28;20196;-77
2022/01/23 00:04:40;;;;;;;13.00;8.73;;;5.10;99.90;;;;;;4980917;28;20167;-77
2022/01/23 00:07:09;;;;;;;10.70;8.43;;;5.10;99.90;;;;;;4978662;28;20722;-77
2022/01/23 00:09:36;;;;;;;11.70;7.90;;;5.10;99.90;;;;;;4973216;28;20182;-77
2022/01/23 00:12:06;;;;;;;10.80;8.00;;;5.10;99.90;;;;;;4997466;28;20203;-77
2022/01/23 00:17:23;;;;;;;9.80;7.70;;;5.20;99.90;;;;;;4997508;28;20171;-77
2022/01/23 00:19:54;;;;;;;11.67;7.77;;;5.20;99.90;;;;;;4997726;28;20188;-77
2022/01/23 00:22:23;;;;;;;12.43;7.73;;;5.20;99.90;;;;;;4987305;28;20215;-77
2022/01/23 00:30:21;;;;;;;11.47;8.23;;;5.10;99.90;;;;;;4987016;28;20760;-77
2022/01/23 00:32:46;;;;;;;12.53;8.67;;;5.10;99.90;;;;;;4996730;28;20210;-77
2022/01/23 00:35:12;;;;;;;12.00;8.33;;;5.20;99.90;;;;;;4988345;28;20212;-77
2022/01/23 00:37:44;;;;;;;12.60;8.77;;;5.20;99.90;;;;;;4997419;28;20175;-77
2022/01/23 00:40:11;;;;;;;12.77;9.07;;;5.20;99.90;;;;;;4997404;28;20340;-77
2022/01/23 00:42:37;;;;;;;11.73;8.70;;;5.20;99.90;;;;;;4986064;28;20202;-78
2022/01/23 00:45:53;;;;;;;15.67;8.53;;;5.20;99.90;;;;;;4949111;28;20176;-77
2022/01/23 00:47:51;;;;;;;14.73;9.10;;;5.20;99.90;;;;;;4951386;28;20520;-77
2022/01/23 00:50:17;;;;;;;15.33;8.67;;;5.20;99.90;;;;;;4958602;28;20328;-78
2022/01/23 00:52:42;;;;;;;12.57;8.40;;;5.20;99.90;;;;;;4958076;28;20235;-77
2022/01/23 00:55:08;;;;;;;11.60;7.90;;;5.20;99.90;;;;;;4958016;28;20275;-77
2022/01/23 00:57:43;;;;;;;11.00;8.10;;;5.10;99.90;;;;;;4982925;28;20194;-77
2022/01/23 01:00:10;;;;;;;11.87;8.03;;;5.20;99.90;;;;;;4997430;28;20615;-77
2022/01/23 01:02:36;;;;;;;11.97;8.10;;;5.20;99.90;;;;;;4996606;28;20243;-78
2022/01/23 01:05:03;;;;;;;12.53;8.17;;;5.10;99.90;;;;;;4985413;28;20183;-78
2022/01/23 01:07:30;;;;;;;15.43;8.40;;;5.20;99.90;;;;;;4993480;28;20187;-78
2022/01/23 01:10:03;;;;;;;13.67;8.70;;;5.10;99.90;;;;;;4972288;28;20230;-78
2022/01/23 01:12:38;;;;;;;15.80;8.90;;;5.20;99.90;;;;;;4994683;28;20677;-78
2022/01/23 01:15:27;;;;;;;12.00;8.10;;;5.20;99.90;;;;;;4996225;28;20210;-78
2022/01/23 01:31:36;;;;;;;13.17;6.77;;;5.20;99.90;;;;;;4999787;28;20197;-77
2022/01/23 01:36:38;;;;;;;13.20;7.27;;;5.30;99.90;;;;;;4994478;28;20307;-78
2022/01/23 01:39:06;;;;;;;11.17;7.13;;;5.20;99.90;;;;;;5001041;28;20189;-78
2022/01/23 01:41:37;;;;;;;11.87;7.23;;;5.20;99.90;;;;;;4998060;28;20648;-79
2022/01/23 01:44:07;;;;;;;11.43;6.87;;;5.20;99.90;;;;;;5013274;28;20773;-77
2022/01/23 01:46:52;;;;;;;10.63;6.73;;;5.30;99.90;;;;;;4992130;28;20279;-77
2022/01/23 01:49:30;;;;;;;11.33;6.87;;;5.30;99.90;;;;;;4990956;28;20873;-75
2022/01/23 01:51:59;;;;;;;9.53;6.93;;;5.30;99.90;;;;;;4977574;28;20195;-78
2022/01/23 01:54:28;;;;;;;14.23;6.97;;;5.30;99.90;;;;;;4987385;28;20221;-79
2022/01/23 01:57:09;;;;;;;9.53;6.27;;;5.30;99.90;;;;;;5006912;28;20214;-78
2022/01/23 02:10:47;;;;;;;10.90;6.90;;;5.40;99.90;;;;;;5000575;28;20202;-78
2022/01/23 02:13:17;;;;;;;10.27;5.90;;;5.30;99.90;;;;;;4998380;28;20220;-78
2022/01/23 02:16:18;;;;;;;8.30;5.97;;;5.40;99.90;;;;;;5003430;28;20203;-79
2022/01/23 02:25:00;;;;;;;11.20;6.63;;;5.30;99.90;;;;;;4997142;28;20293;-78
2022/01/23 02:55:09;;;;;;;15.03;9.47;;;5.40;99.90;;;;;;5001217;28;20260;-80
2022/01/23 02:57:52;;;;;;;16.23;9.07;;;5.30;99.90;;;;;;5003994;28;20187;-79
2022/01/23 03:00:23;;;;;;;16.07;8.60;;;5.40;99.90;;;;;;5001374;28;20205;-77
2022/01/23 03:03:12;;;;;;;14.00;8.57;;;5.40;99.90;;;;;;5017688;28;20195;-78
2022/01/23 03:06:20;;;;;;;17.00;8.90;;;5.40;99.90;;;;;;4989767;28;20225;-79
2022/01/23 03:11:37;;;;;;;14.67;8.77;;;5.40;99.90;;;;;;4983333;28;20654;-78
2022/01/23 03:30:26;;;;;;;15.23;9.00;;;5.60;99.90;;;;;;5007079;28;20175;-78
2022/01/23 03:32:53;;;;;;;13.67;8.80;;;5.50;99.90;;;;;;4989671;28;20259;-79
2022/01/23 03:35:21;;;;;;;17.50;9.00;;;5.50;99.90;;;;;;4984733;28;20212;-79
2022/01/23 03:37:48;;;;;;;14.63;9.30;;;5.60;99.90;;;;;;5004900;28;20175;-79
2022/01/23 03:40:14;;;;;;;15.30;8.43;;;5.50;99.90;;;;;;4986980;28;20176;-80
2022/01/23 03:42:42;;;;;;;16.07;8.40;;;5.60;99.90;;;;;;4992840;28;20195;-80
2022/01/23 03:47:39;;;;;;;15.27;8.93;;;5.60;99.90;;;;;;4989300;28;20187;-80
2022/01/23 03:50:10;;;;;;;13.67;8.27;;;5.50;99.90;;;;;;4982841;28;20188;-79
2022/01/23 03:52:42;;;;;;;14.17;8.80;;;5.50;99.90;;;;;;4986492;28;20220;-79
2022/01/23 03:55:08;;;;;;;15.63;9.17;;;5.50;99.90;;;;;;4977993;28;20254;-80
2022/01/23 03:57:36;;;;;;;18.63;9.37;;;5.50;99.90;;;;;;4964050;28;20176;-79
2022/01/23 04:00:07;;;;;;;13.60;8.33;;;5.50;99.90;;;;;;4979179;28;20179;-79
2022/01/23 04:02:39;;;;;;;14.37;8.73;;;5.60;99.90;;;;;;4974938;28;20207;-80
2022/01/23 04:05:05;;;;;;;12.90;7.70;;;5.60;99.90;;;;;;4966045;28;20176;-79
2022/01/23 04:07:34;;;;;;;13.07;7.80;;;5.60;99.90;;;;;;4971746;28;20190;-79
2022/01/23 04:10:02;;;;;;;12.13;7.93;;;5.60;99.90;;;;;;4979261;28;20234;-80
2022/01/23 04:12:52;;;;;;;11.90;7.43;;;5.60;99.90;;;;;;4968473;28;20209;-79
2022/01/23 04:34:35;;;;;;;13.53;7.73;;;5.60;99.90;;;;;;4969004;28;20208;-79
2022/01/23 04:45:29;;;;;;;16.03;8.03;;;5.60;99.90;;;;;;5001218;28;20191;-79
2022/01/23 05:02:11;;;;;;;19.10;9.63;;;5.70;99.90;;;;;;4978875;28;20232;-79
2022/01/23 05:04:57;;;;;;;23.47;10.53;;;5.70;99.90;;;;;;4978303;28;20180;-79
2022/01/23 05:07:43;;;;;;;19.13;10.47;;;5.80;99.90;;;;;;4973231;28;20187;-78
2022/01/23 05:10:20;;;;;;;19.53;10.00;;;5.70;99.90;;;;;;4968728;28;20207;-78
2022/01/23 05:12:52;;;;;;;21.47;10.37;;;5.80;99.90;;;;;;4978800;28;20219;-80
2022/01/23 05:15:18;;;;;;;20.03;9.93;;;5.80;99.90;;;;;;4958783;28;20223;-79
2022/01/23 05:17:44;;;;;;;19.67;10.57;;;5.80;99.90;;;;;;4968918;28;20189;-78
2022/01/23 05:20:13;;;;;;;21.53;9.90;;;5.90;99.90;;;;;;4987220;28;20176;-78
2022/01/23 05:22:45;;;;;;;17.37;9.43;;;5.80;99.90;;;;;;4989526;28;20196;-79
2022/01/23 05:25:24;;;;;;;15.83;8.93;;;5.90;99.90;;;;;;4969405;28;20184;-79
2022/01/23 05:27:52;;;;;;;17.20;9.27;;;5.90;99.90;;;;;;4961489;28;20171;-78
2022/01/23 05:30:19;;;;;;;17.37;9.17;;;5.80;99.90;;;;;;4972112;28;20188;-79
2022/01/23 05:32:45;;;;;;;18.13;9.63;;;5.90;99.90;;;;;;4984672;28;20229;-78
2022/01/23 05:35:13;;;;;;;17.03;8.73;;;5.90;99.90;;;;;;4982609;28;20228;-78
2022/01/23 05:37:40;;;;;;;14.40;7.93;;;5.90;99.90;;;;;;4967573;28;20524;-78
2022/01/23 05:40:12;;;;;;;15.13;8.60;;;5.90;99.90;;;;;;4976068;28;20180;-78
2022/01/23 05:42:41;;;;;;;14.73;8.67;;;5.90;99.90;;;;;;4974970;28;20214;-78
2022/01/23 05:45:08;;;;;;;17.80;9.00;;;5.90;99.90;;;;;;4995711;28;20178;-78
2022/01/23 05:47:53;;;;;;;19.70;9.07;;;5.90;99.90;;;;;;5004560;28;20270;-78
2022/01/23 05:50:38;;;;;;;15.00;7.93;;;5.90;99.90;;;;;;5003037;28;20188;-78
2022/01/23 05:53:24;;;;;;;13.33;8.50;;;5.90;99.90;;;;;;4976119;28;20187;-78
2022/01/23 05:56:09;;;;;;;17.77;8.00;;;5.90;99.90;;;;;;4982126;28;20223;-80
2022/01/23 05:59:05;;;;;;;12.40;7.40;;;5.90;99.90;;;;;;4972215;28;20279;-77
2022/01/23 06:01:34;;;;;;;15.43;8.30;;;6.00;99.90;;;;;;4967339;28;20192;-78
2022/01/23 06:04:06;;;;;;;14.07;7.70;;;6.00;99.90;;;;;;4980572;28;20243;-79
2022/01/23 06:06:43;;;;;;;17.87;8.43;;;6.00;99.90;;;;;;4990814;28;20182;-78
2022/01/23 06:09:09;;;;;;;16.17;8.90;;;6.00;99.90;;;;;;4968033;28;20176;-78
2022/01/23 06:11:35;;;;;;;17.70;8.67;;;5.90;99.90;;;;;;4974331;28;20202;-79
2022/01/23 06:14:01;;;;;;;20.93;8.63;;;6.00;99.90;;;;;;4968738;28;20280;-77
2022/01/23 06:16:26;;;;;;;19.73;8.83;;;6.00;99.90;;;;;;4972757;28;20216;-78
2022/01/23 06:19:13;;;;;;;18.50;8.80;;;6.00;99.90;;;;;;4972710;28;20675;-79
2022/01/23 06:22:02;;;;;;;21.13;9.80;;;6.00;99.90;;;;;;4957605;28;20204;-79
2022/01/23 06:24:56;;;;;;;24.30;9.33;;;6.00;99.90;;;;;;4968018;28;20184;-78
2022/01/23 06:27:40;;;;;;;21.50;9.83;;;6.00;99.90;;;;;;4956697;28;20183;-78
2022/01/23 06:30:07;;;;;;;21.43;10.53;;;6.00;99.90;;;;;;4957076;28;20552;-78
2022/01/23 06:32:34;;;;;;;23.53;10.37;;;6.00;99.90;;;;;;4992400;28;20228;-79
2022/01/23 06:34:59;;;;;;;22.33;10.63;;;6.00;99.90;;;;;;4951324;28;20604;-79
2022/01/23 06:37:27;;;;;;;29.53;12.40;;;6.00;99.90;;;;;;4976205;28;20516;-79
2022/01/23 06:39:55;;;;;;;25.57;12.27;;;6.00;99.90;;;;;;4973934;28;20475;-78
2022/01/23 06:42:39;;;;;;;23.33;11.07;;;6.00;99.90;;;;;;4966106;28;20263;-78
2022/01/23 06:45:19;;;;;;;28.27;12.00;;;6.00;99.90;;;;;;4961859;28;20188;-78
2022/01/23 06:47:45;;;;;;;23.73;12.00;;;6.00;99.90;;;;;;4956284;28;20193;-78
2022/01/23 06:50:11;;;;;;;30.10;13.27;;;6.00;99.90;;;;;;4961917;28;20179;-78
2022/01/23 06:52:37;;;;;;;25.03;12.63;;;6.00;99.90;;;;;;4954233;28;20200;-79
2022/01/23 06:55:03;;;;;;;28.57;12.07;;;6.00;99.90;;;;;;4958194;28;20197;-79
2022/01/23 06:57:28;;;;;;;22.53;11.23;;;5.90;99.90;;;;;;4972706;28;20596;-78
2022/01/23 06:59:55;;;;;;;28.47;11.83;;;6.00;99.90;;;;;;4957387;28;20190;-78
2022/01/23 07:02:44;;;;;;;24.70;12.23;;;6.00;99.90;;;;;;4981221;28;20295;-78
2022/01/23 07:05:28;;;;;;;30.60;12.43;;;6.00;99.90;;;;;;4969040;28;20199;-79
2022/01/23 07:08:03;;;;;;;27.57;12.73;;;6.00;99.90;;;;;;4960105;28;20189;-80
2022/01/23 07:10:48;;;;;;;28.00;12.87;;;6.00;99.90;;;;;;4987656;28;20202;-79
2022/01/23 07:13:24;;;;;;;28.13;12.87;;;6.10;99.90;;;;;;4993487;28;20277;-79
2022/01/23 07:16:14;;;;;;;28.60;12.30;;;6.00;99.90;;;;;;5002505;28;20215;-78
2022/01/23 07:19:15;;;;;;;29.83;12.40;;;6.00;99.90;;;;;;5019169;28;20178;-77
2022/01/23 07:21:48;;;;;;;25.43;12.23;;;6.00;99.90;;;;;;4997235;28;20208;-79
2022/01/23 07:24:15;;;;;;;27.77;13.00;;;5.90;99.90;;;;;;4996601;28;20257;-79
2022/01/23 07:26:41;;;;;;;26.83;12.60;;;6.00;99.90;;;;;;4979364;28;20186;-78
2022/01/23 07:29:07;;;;;;;27.63;13.20;;;6.00;99.90;;;;;;4976699;28;20176;-79
2022/01/23 07:34:05;;;;;;;25.57;11.27;;;6.00;99.90;;;;;;4979339;28;20335;-79
2022/01/23 07:36:31;;;;;;;23.97;11.27;;;6.00;99.90;;;;;;4978729;28;20546;-79
2022/01/23 07:38:58;;;;;;;25.20;11.23;;;5.90;99.90;;;;;;4975909;28;20189;-78
2022/01/23 07:41:44;;;;;;;23.90;11.43;;;5.90;99.90;;;;;;4999109;28;20284;-79
2022/01/23 07:44:35;;;;;;;24.10;10.70;;;6.00;99.90;;;;;;5007827;28;20198;-80
2022/01/23 07:47:26;;;;;;;20.00;11.03;;;6.00;99.90;;;;;;5004202;28;20175;-79
2022/01/23 07:50:14;;;;;;;23.20;11.37;;;6.00;99.90;;;;;;5006328;28;20178;-79
2022/01/23 07:53:04;;;;;;;19.97;11.10;;;6.00;99.90;;;;;;4991875;28;20204;-79
2022/01/23 07:55:40;;;;;;;20.53;10.20;;;6.00;99.90;;;;;;5005582;28;20211;-79
2022/01/23 07:58:24;;;;;;;22.50;10.63;;;6.10;99.90;;;;;;5009097;28;20184;-80
2022/01/23 08:01:13;;;;;;;18.97;10.33;;;6.10;99.90;;;;;;4982776;28;20178;-79
2022/01/23 08:04:19;;;;;;;25.37;11.33;;;6.10;99.90;;;;;;4963722;28;20185;-80
2022/01/23 08:06:48;;;;;;;22.40;10.97;;;6.10;99.90;;;;;;4974145;28;20212;-79
2022/01/23 08:09:49;;;;;;;19.70;10.73;;;6.10;99.90;;;;;;4953913;29;20740;-80
2022/01/23 08:12:15;;;;;;;20.10;10.60;;;6.10;99.90;;;;;;4999596;28;20208;-79
2022/01/23 08:14:43;;;;;;;24.07;11.40;;;6.10;99.90;;;;;;5004556;28;20188;-79
2022/01/23 08:17:09;;;;;;;22.30;11.10;;;6.20;99.90;;;;;;5009675;28;20324;-79
2022/01/23 08:19:35;;;;;;;21.70;11.67;;;6.20;99.90;;;;;;4987568;28;20701;-80
2022/01/23 08:22:00;;;;;;;24.13;11.90;;;6.20;99.90;;;;;;5006792;28;20216;-80
2022/01/23 08:24:26;;;;;;;28.03;11.50;;;6.10;99.90;;;;;;5007243;28;20547;-79
2022/01/23 08:26:52;;;;;;;21.93;11.73;;;6.20;99.90;;;;;;4989773;28;20267;-80
2022/01/23 08:29:17;;;;;;;23.67;11.77;;;6.20;99.90;;;;;;5004762;28;20236;-79
2022/01/23 08:31:45;;;;;;;24.23;11.77;;;6.20;99.90;;;;;;5005197;28;20721;-79
2022/01/23 08:34:11;;;;;;;27.17;11.93;;;6.30;99.90;;;;;;4990961;28;20215;-80
2022/01/23 08:36:37;;;;;;;26.40;11.20;;;6.20;99.90;;;;;;4990425;28;20208;-80
2022/01/23 08:39:05;;;;;;;28.57;12.37;;;6.20;99.90;;;;;;4998449;28;20195;-80
2022/01/23 08:41:49;;;;;;;26.33;12.00;;;6.20;99.90;;;;;;4989600;28;20202;-81
2022/01/23 08:44:23;;;;;;;25.73;12.07;;;6.30;99.90;;;;;;4989834;28;20249;-79
2022/01/23 08:46:49;;;;;;;23.37;11.73;;;6.20;99.90;;;;;;4986624;28;20180;-80
2022/01/23 08:49:17;;;;;;;28.37;12.50;;;6.30;99.90;;;;;;4986091;28;20193;-80
2022/01/23 08:51:47;;;;;;;25.23;12.63;;;6.30;99.90;;;;;;4989339;28;20209;-80
2022/01/23 08:54:13;;;;;;;26.10;12.90;;;6.30;99.90;;;;;;5001386;28;20200;-79
2022/01/23 08:56:40;;;;;;;26.57;13.47;;;6.30;99.90;;;;;;4985024;28;20220;-79
2022/01/23 08:59:06;;;;;;;29.53;13.27;;;6.30;99.90;;;;;;5004166;28;20239;-79
2022/01/23 09:01:34;;;;;;;24.20;12.13;;;6.40;99.90;;;;;;4988587;28;20671;-79
2022/01/23 09:04:00;;;;;;;28.63;13.13;;;6.40;99.90;;;;;;4985966;28;20539;-80
2022/01/23 09:06:25;;;;;;;27.13;12.63;;;6.40;99.90;;;;;;5001498;28;20187;-80
2022/01/23 09:08:53;;;;;;;25.70;11.80;;;6.30;99.90;;;;;;4981535;28;20614;-80
2022/01/23 09:11:27;;;;;;;24.97;11.30;;;6.30;99.90;;;;;;4997511;28;20226;-80
2022/01/23 09:14:17;;;;;;;24.20;11.97;;;6.40;99.90;;;;;;5003247;28;20236;-81
2022/01/23 09:16:43;;;;;;;21.23;11.17;;;6.40;99.90;;;;;;5002560;28;20239;-80
2022/01/23 09:19:10;;;;;;;30.03;10.97;;;6.40;99.90;;;;;;4987528;28;20201;-82
2022/01/23 09:21:38;;;;;;;30.73;11.50;;;6.40;99.90;;;;;;4988294;28;20208;-81
2022/01/23 09:24:05;;;;;;;30.60;11.63;;;6.40;99.90;;;;;;5005211;28;20249;-80
2022/01/23 09:26:31;;;;;;;23.47;11.63;;;6.50;99.90;;;;;;5003128;28;20181;-80
2022/01/23 09:29:00;;;;;;;23.87;10.60;;;6.50;99.90;;;;;;4988784;28;20178;-80
2022/01/23 09:31:48;;;;;;;21.73;10.07;;;6.60;99.90;;;;;;5004119;28;20211;-82
2022/01/23 09:34:24;;;;;;;21.43;10.67;;;6.70;99.90;;;;;;5004114;28;20313;-82
2022/01/23 09:36:51;;;;;;;19.70;9.60;;;6.70;99.90;;;;;;4988400;28;20271;-83
2022/01/23 09:39:20;;;;;;;21.20;9.67;;;6.70;99.90;;;;;;4996529;28;20199;-80
2022/01/23 09:41:50;;;;;;;19.20;10.10;;;6.80;99.90;;;;;;5004515;28;20230;-81
2022/01/23 09:44:18;;;;;;;22.30;10.20;;;6.80;99.90;;;;;;5004772;28;20174;-81
2022/01/23 09:46:45;;;;;;;27.03;10.30;;;6.80;99.90;;;;;;5004339;28;20182;-81
2022/01/23 09:49:14;;;;;;;22.47;10.20;;;6.70;99.90;;;;;;4986777;28;20181;-82
2022/01/23 09:51:45;;;;;;;21.47;10.13;;;6.80;99.90;;;;;;4964862;28;20234;-82
2022/01/23 09:54:13;;;;;;;23.30;10.80;;;6.80;99.90;;;;;;4964447;28;20186;-80
2022/01/23 09:56:41;;;;;;;18.17;10.50;;;6.80;99.90;;;;;;4964782;28;20213;-82
2022/01/23 09:59:10;;;;;;;19.83;10.73;;;6.80;99.90;;;;;;4963975;28;20186;-81
2022/01/23 10:01:40;;;;;;;22.67;12.30;;;6.90;99.90;;;;;;4964062;28;20219;-81
2022/01/23 10:04:06;;;;;;;23.13;10.93;;;6.90;99.90;;;;;;4963332;28;20499;-81
2022/01/23 10:06:32;;;;;;;25.20;11.47;;;6.90;99.90;;;;;;4979478;28;20540;-81
2022/01/23 10:08:59;;;;;;;26.93;12.47;;;6.90;99.90;;;;;;4947463;28;20635;-81
2022/01/23 10:11:30;;;;;;;27.63;12.17;;;6.80;99.90;;;;;;4990546;28;20206;-81
2022/01/23 10:13:56;;;;;;;28.77;11.47;;;6.90;99.90;;;;;;5002768;28;20191;-81
2022/01/23 10:16:23;;;;;;;31.17;11.67;;;6.90;99.90;;;;;;4986340;28;20316;-81
2022/01/23 10:18:59;;;;;;;29.73;11.83;;;6.90;99.90;;;;;;5002362;28;20178;-81
2022/01/23 10:21:25;;;;;;;25.23;11.07;;;7.00;99.90;;;;;;4984697;28;20669;-80
2022/01/23 10:23:52;;;;;;;24.03;10.70;;;7.00;99.90;;;;;;4981251;28;20610;-79
2022/01/23 10:26:52;;;;;;;19.53;10.00;;;7.10;99.90;;;;;;4996042;28;20183;-79
2022/01/23 10:29:28;;;;;;;22.70;9.27;;;7.10;99.90;;;;;;4996136;28;20280;-79
2022/01/23 10:32:21;;;;;;;27.13;8.77;;;7.10;99.90;;;;;;4997965;28;20270;-80
2022/01/23 10:34:48;;;;;;;17.40;8.53;;;7.10;99.90;;;;;;5000375;28;20179;-80
2022/01/23 10:37:36;;;;;;;21.40;6.93;;;7.00;99.90;;;;;;4997301;28;20213;-80
2022/01/23 10:40:22;;;;;;;20.93;7.47;;;7.00;99.90;;;;;;4985738;28;20195;-79
2022/01/23 10:42:57;;;;;;;19.10;7.17;;;7.10;99.90;;;;;;4999037;28;20198;-79
2022/01/23 10:48:27;;;;;;;13.70;5.40;;;7.10;99.90;;;;;;4996983;28;20189;-78
2022/01/23 10:51:17;;;;;;;15.50;5.70;;;7.10;99.90;;;;;;4997857;28;20302;-79
2022/01/23 10:54:02;;;;;;;13.07;5.70;;;7.20;99.90;;;;;;4981491;28;20520;-79
2022/01/23 10:56:29;;;;;;;16.17;5.27;;;7.20;99.90;;;;;;4982595;28;20216;-79
2022/01/23 10:58:57;;;;;;;15.37;5.07;;;7.20;99.90;;;;;;4998400;28;20186;-80
2022/01/23 11:01:23;;;;;;;13.00;5.30;;;7.20;99.90;;;;;;4998993;28;20289;-80
2022/01/23 11:04:11;;;;;;;12.67;5.20;;;7.20;99.90;;;;;;5001282;28;20224;-78
2022/01/23 11:07:02;;;;;;;17.33;6.20;;;7.20;99.90;;;;;;4997361;28;20610;-78
2022/01/23 11:09:36;;;;;;;12.03;5.13;;;7.20;99.90;;;;;;4990102;28;20267;-79
2022/01/23 11:12:13;;;;;;;14.40;5.77;;;7.30;99.90;;;;;;5001588;28;20197;-80
2022/01/23 11:17:26;;;;;;;15.53;5.70;;;7.50;99.90;;;;;;4999938;28;20284;-79
2022/01/23 11:20:00;;;;;;;13.30;5.37;;;7.60;99.90;;;;;;5003666;28;20245;-80
2022/01/23 11:22:35;;;;;;;13.47;4.90;;;7.60;99.90;;;;;;5002193;28;20202;-79
2022/01/23 11:25:07;;;;;;;9.20;4.27;;;7.50;99.90;;;;;;5008597;28;20189;-78
2022/01/23 11:28:11;;;;;;;12.43;4.63;;;7.50;99.90;;;;;;5001711;28;20183;-79
2022/01/23 11:30:48;;;;;;;8.77;4.07;;;7.50;99.90;;;;;;5001806;28;20186;-79
2022/01/23 11:33:17;;;;;;;11.23;4.30;;;7.70;99.90;;;;;;5001615;28;20206;-78
2022/01/23 11:35:46;;;;;;;17.90;4.57;;;7.80;99.90;;;;;;5002835;28;20585;-79
2022/01/23 11:38:16;;;;;;;14.00;4.60;;;7.80;99.90;;;;;;5001800;28;20182;-79
2022/01/23 11:54:42;;;;;;;11.77;3.70;;;7.90;99.90;;;;;;5018813;28;20167;-82
2022/01/23 11:57:33;;;;;;;8.80;3.47;;;8.00;99.90;;;;;;5004358;28;20218;-79
2022/01/23 12:00:29;;;;;;;10.63;4.13;;;8.00;99.90;;;;;;4998392;28;20170;-80
2022/01/23 12:03:13;;;;;;;11.07;3.50;;;7.90;99.90;;;;;;5008732;28;20208;-79
2022/01/23 12:05:45;;;;;;;5.53;3.30;;;7.80;99.90;;;;;;5009291;28;20245;-79
2022/01/23 12:08:21;;;;;;;9.23;3.60;;;7.80;99.90;;;;;;5010507;28;20209;-79
2022/01/23 12:17:09;;;;;;;9.27;2.90;;;8.10;99.90;;;;;;5009723;28;20264;-79
2022/01/23 12:19:49;;;;;;;10.90;3.20;;;8.10;99.90;;;;;;4992754;28;20192;-79
2022/01/23 12:22:25;;;;;;;10.37;3.33;;;8.10;99.90;;;;;;4951439;28;20327;-78
2022/01/23 12:24:57;;;;;;;8.93;3.13;;;8.10;99.90;;;;;;4972215;28;20167;-78
2022/01/23 12:27:27;;;;;;;10.63;3.47;;;8.10;99.90;;;;;;4989183;28;20172;-79
2022/01/23 12:30:13;;;;;;;10.00;3.87;;;8.00;99.90;;;;;;4993877;28;20184;-80
2022/01/23 12:32:39;;;;;;;9.30;4.10;;;7.90;99.90;;;;;;4959821;28;20214;-79
2022/01/23 12:35:07;;;;;;;5.47;3.60;;;7.80;99.90;;;;;;4966620;28;20184;-79
2022/01/23 12:37:56;;;;;;;8.47;3.43;;;7.70;99.90;;;;;;5000256;28;20183;-79
2022/01/23 12:40:32;;;;;;;6.73;3.37;;;7.80;99.90;;;;;;4974360;28;20184;-78
2022/01/23 12:43:35;;;;;;;6.67;3.23;;;7.80;99.90;;;;;;5005275;28;20209;-79
2022/01/23 12:46:05;;;;;;;6.00;2.73;;;7.80;99.90;;;;;;5009325;28;20186;-85
2022/01/23 12:48:34;;;;;;;7.10;2.90;;;7.90;99.90;;;;;;5021119;28;20178;-79
2022/01/23 12:51:06;;;;;;;7.53;2.70;;;8.00;99.90;;;;;;5002691;28;20178;-79
2022/01/23 12:53:35;;;;;;;9.07;2.80;;;8.00;99.90;;;;;;5021150;28;20214;-81
2022/01/23 12:56:13;;;;;;;8.67;2.70;;;8.00;99.90;;;;;;5022058;28;20337;-89
2022/01/23 12:58:39;;;;;;;7.20;3.03;;;8.00;99.90;;;;;;5021373;28;20186;-82
2022/01/23 13:01:15;;;;;;;4.63;2.00;;;7.90;99.90;;;;;;5004722;28;20167;-84
2022/01/23 13:03:53;;;;;;;3.73;1.77;;;7.90;99.90;;;;;;5020559;28;20186;-82
2022/01/23 13:06:33;;;;;;;4.60;1.70;;;7.90;99.90;;;;;;5017830;28;20177;-82
2022/01/23 13:09:27;;;;;;;3.87;1.93;;;7.90;99.90;;;;;;5029531;28;20211;-78
2022/01/23 13:12:17;;;;;;;4.67;1.80;;;7.90;99.90;;;;;;4991432;28;20248;-79
2022/01/23 13:14:50;;;;;;;6.93;1.63;;;8.00;99.90;;;;;;5019698;28;20167;-83
2022/01/23 13:17:33;;;;;;;10.17;1.87;;;8.00;99.90;;;;;;5020358;28;20198;-80
2022/01/23 13:30:50;;;;;;;5.97;2.30;;;8.20;99.90;;;;;;5018614;28;20170;-82
2022/01/23 13:33:21;;;;;;;8.97;2.23;;;8.20;99.90;;;;;;5017272;28;20226;-79
2022/01/23 13:35:52;;;;;;;5.87;1.97;;;8.20;99.90;;;;;;5016357;28;20230;-81
2022/01/23 13:38:21;;;;;;;6.03;2.13;;;8.20;99.90;;;;;;5015829;28;20179;-85
2022/01/23 13:40:57;;;;;;;6.47;2.37;;;8.20;99.90;;;;;;5010678;28;20192;-79
2022/01/23 13:51:56;;;;;;;7.10;2.20;;;8.10;99.90;;;;;;4963979;28;20299;-81
2022/01/23 14:02:24;;;;;;;6.20;1.70;;;8.10;99.90;;;;;;4981816;28;20206;-81
2022/01/23 14:05:03;;;;;;;3.73;1.90;;;8.10;99.90;;;;;;4968936;28;20176;-79
2022/01/23 14:07:30;;;;;;;3.53;1.50;;;7.90;99.90;;;;;;4948671;28;20167;-79
2022/01/23 14:09:59;;;;;;;6.00;1.60;;;7.80;99.90;;;;;;4947330;28;20187;-79
2022/01/23 14:12:31;;;;;;;6.60;2.17;;;7.70;99.90;;;;;;4946679;28;20211;-80
2022/01/23 14:15:05;;;;;;;5.77;2.10;;;7.70;99.90;;;;;;4945031;28;20186;-79
2022/01/23 14:17:36;;;;;;;4.23;1.60;;;7.70;99.90;;;;;;4944585;28;20257;-79
2022/01/23 14:20:12;;;;;;;6.37;1.60;;;7.70;99.90;;;;;;4945176;28;20172;-79
2022/01/23 14:22:41;;;;;;;5.80;1.37;;;7.70;99.90;;;;;;4943199;28;20195;-80
2022/01/23 14:25:10;;;;;;;4.97;1.73;;;7.60;99.90;;;;;;4958736;28;20180;-78
2022/01/23 14:27:38;;;;;;;6.13;1.20;;;7.60;99.90;;;;;;4942532;28;20183;-80
2022/01/23 14:30:20;;;;;;;6.60;1.97;;;7.60;99.90;;;;;;4942616;28;20205;-81
2022/01/23 14:32:50;;;;;;;4.03;1.40;;;7.50;99.90;;;;;;4943461;28;20214;-78
2022/01/23 14:35:24;;;;;;;5.20;1.40;;;7.50;99.90;;;;;;4943737;28;20354;-79
2022/01/23 14:37:52;;;;;;;5.10;1.33;;;7.50;99.90;;;;;;4943113;28;20183;-78
2022/01/23 14:40:24;;;;;;;2.93;1.53;;;7.40;99.90;;;;;;4953310;28;20187;-79
2022/01/23 14:43:01;;;;;;;3.90;1.50;;;7.40;99.90;;;;;;4983916;28;20206;-79
2022/01/23 14:45:28;;;;;;;2.17;1.30;;;7.40;99.90;;;;;;4998291;28;20182;-79
2022/01/23 14:47:54;;;;;;;3.67;1.70;;;7.40;99.90;;;;;;4996782;28;20179;-79
2022/01/23 14:50:24;;;;;;;6.13;1.97;;;7.40;99.90;;;;;;4997366;28;20189;-78
2022/01/23 14:52:50;;;;;;;4.60;2.03;;;7.30;99.90;;;;;;4984265;28;20272;-81
2022/01/23 14:55:16;;;;;;;3.93;1.70;;;7.30;99.90;;;;;;5000936;28;20299;-78
2022/01/23 14:57:44;;;;;;;5.63;1.80;;;7.30;99.90;;;;;;5001679;28;20548;-79
2022/01/23 15:00:11;;;;;;;4.27;2.07;;;7.30;99.90;;;;;;5001034;28;20178;-78
2022/01/23 15:02:43;;;;;;;5.00;2.30;;;7.20;99.90;;;;;;5002165;28;20212;-79
2022/01/23 15:05:16;;;;;;;3.90;1.90;;;7.20;99.90;;;;;;5018330;28;20217;-78
2022/01/23 15:07:42;;;;;;;7.67;2.10;;;7.10;99.90;;;;;;4999363;28;20277;-79
2022/01/23 15:10:10;;;;;;;4.87;2.67;;;7.20;99.90;;;;;;5000414;28;20270;-79
2022/01/23 15:12:36;;;;;;;4.40;2.43;;;7.20;99.90;;;;;;4964546;28;20213;-85
2022/01/23 15:15:09;;;;;;;6.47;1.87;;;7.10;99.90;;;;;;4971404;28;20227;-83
2022/01/23 15:17:37;;;;;;;6.77;1.73;;;7.10;99.90;;;;;;4975120;28;20206;-87
2022/01/23 15:20:03;;;;;;;4.57;2.20;;;7.20;99.90;;;;;;4972122;28;20274;-85
2022/01/23 15:22:29;;;;;;;2.87;1.77;;;7.10;99.90;;;;;;4986379;28;20197;-85
2022/01/23 15:24:55;;;;;;;4.70;1.70;;;7.10;99.90;;;;;;4969659;28;20182;-83
2022/01/23 15:27:21;;;;;;;4.50;2.03;;;7.10;99.90;;;;;;4968753;28;20170;-85
2022/01/23 15:29:47;;;;;;;4.47;2.23;;;7.10;99.90;;;;;;4967844;28;20250;-81
2022/01/23 15:32:30;;;;;;;5.30;2.07;;;7.20;99.90;;;;;;4979492;28;20236;-80
2022/01/23 15:34:56;;;;;;;5.03;1.90;;;7.20;99.90;;;;;;4963798;28;20234;-81
2022/01/23 15:37:22;;;;;;;4.30;2.00;;;7.10;99.90;;;;;;4946828;28;20211;-82
2022/01/23 15:39:48;;;;;;;7.73;2.67;;;7.00;99.90;;;;;;4969935;28;20181;-80
2022/01/23 15:42:14;;;;;;;4.73;2.40;;;7.00;99.90;;;;;;5001099;28;20195;-80
2022/01/23 15:44:40;;;;;;;6.97;2.43;;;6.90;99.90;;;;;;4973726;28;20278;-82
2022/01/23 15:47:06;;;;;;;3.83;2.23;;;7.00;99.90;;;;;;4978742;28;20551;-81
2022/01/23 15:49:39;;;;;;;6.37;2.33;;;7.00;99.90;;;;;;4963723;28;20239;-81
2022/01/23 15:52:05;;;;;;;6.27;2.47;;;6.90;99.90;;;;;;4962059;28;20244;-81
2022/01/23 15:54:34;;;;;;;5.53;2.33;;;6.90;99.90;;;;;;4945777;28;20191;-81
2022/01/23 15:57:01;;;;;;;6.30;2.57;;;6.90;99.90;;;;;;4964805;28;20227;-81
2022/01/23 15:59:27;;;;;;;7.50;2.97;;;6.80;99.90;;;;;;4965917;28;20194;-81
2022/01/23 16:01:53;;;;;;;5.30;2.23;;;6.80;99.90;;;;;;4966741;28;20282;-81
2022/01/23 16:04:21;;;;;;;5.43;2.27;;;6.80;99.90;;;;;;4967026;28;20187;-80
2022/01/23 16:06:48;;;;;;;8.03;3.40;;;6.80;99.90;;;;;;4966744;28;20204;-79
2022/01/23 16:09:14;;;;;;;3.77;2.40;;;6.80;99.90;;;;;;4966871;28;20198;-81
2022/01/23 16:11:41;;;;;;;4.53;2.50;;;6.90;99.90;;;;;;5001664;28;20320;-81
2022/01/23 16:14:07;;;;;;;5.37;2.30;;;6.90;99.90;;;;;;5003560;28;20194;-83
2022/01/23 16:16:34;;;;;;;4.47;2.37;;;6.90;99.90;;;;;;4990242;28;20214;-81
2022/01/23 16:19:00;;;;;;;9.60;3.13;;;6.80;99.90;;;;;;4964930;28;20661;-81
2022/01/23 16:21:27;;;;;;;7.27;2.73;;;6.80;99.90;;;;;;4967329;28;20212;-80
2022/01/23 16:23:53;;;;;;;4.87;2.90;;;6.80;99.90;;;;;;4946747;28;20245;-79